Aviation Digital Data Service (ADDS)

Output produced by METARs form (1150 UTC 19 September 2014)
found at http://www.aviationweather.gov/adds/metars/
 
KTHV 191116Z AUTO 00000KT 3SM BR FEW070 FEW080 07/06 A3026 RMK AO2 T00670056
KTHV 191106Z AUTO 00000KT 2SM BR CLR 06/05 A3025 RMK AO2 T00560050
KTHV 191053Z AUTO 00000KT 4SM BR CLR 06/05 A3025 RMK AO2 SLP245 T00560050
KTHV 190953Z AUTO 00000KT 6SM BR CLR 06/06 A3022 RMK AO2 SLP236 T00610056
KTHV 190853Z AUTO 00000KT 6SM BR CLR 06/05 A3020 RMK AO2 SLP228 T00610050 52015
KTHV 190753Z AUTO 00000KT 8SM CLR 06/06 A3018 RMK AO2 SLP222 T00610056
KTHV 190653Z AUTO 00000KT 7SM CLR 07/06 A3017 RMK AO2 SLP219 T00670056
KTHV 190553Z AUTO 00000KT 9SM CLR 07/06 A3015 RMK AO2 SLP213 T00670056 10128 20061 53014
KTHV 190453Z AUTO 00000KT 10SM CLR 07/07 A3013 RMK AO2 SLP205 T00720067 402440072
KTHV 190353Z AUTO 27003KT 10SM CLR 08/07 A3012 RMK AO2 SLP203 T00780067
KTHV 190253Z AUTO 00000KT 10SM CLR 09/07 A3011 RMK AO2 SLP199 T00890072 51019
KTHV 190153Z AUTO 00000KT 10SM CLR 09/08 A3010 RMK AO2 SLP195 T00940078
KTHV 190053Z AUTO 25003KT 10SM CLR 11/09 A3008 RMK AO2 SLP188 T01060089
KTHV 182353Z AUTO 00000KT 10SM CLR 13/09 A3006 RMK AO2 SLP180 T01280094 10244 20128 53014
KTHV 182253Z AUTO 36004KT 10SM CLR 21/07 A3004 RMK AO2 SLP173 T02060072
KTHV 182153Z AUTO 32008KT 10SM CLR 22/07 A3002 RMK AO2 SLP168 T02220072
KTHV 182053Z AUTO 36006KT 10SM CLR 24/08 A3002 RMK AO2 SLP164 T02390078 56001
KTHV 181953Z AUTO 35008KT 10SM CLR 23/08 A3002 RMK AO2 SLP167 T02280078
KTHV 181853Z AUTO VRB06KT 10SM FEW065 23/07 A3001 RMK AO2 SLP165 T02330072
KTHV 181753Z AUTO 34007KT 10SM FEW060 FEW110 23/07 A3002 RMK AO2 SLP167 T02330072 10244 20122 58004
KTHV 181653Z AUTO 34005KT 10SM FEW060 OVC110 23/09 A3003 RMK AO2 SLP169 T02280089
KTHV 181553Z AUTO 07008KT 10SM FEW048 OVC060 21/11 A3003 RMK AO2 SLP170 T02110106
KTHV 181453Z AUTO 00000KT 10SM SCT048 BKN065 BKN075 19/12 A3003 RMK AO2 SLP171 T01940117 53007
KTHV 181353Z AUTO 00000KT 7SM SCT049 SCT060 BKN080 17/12 A3002 RMK AO2 SLP170 T01670117
KTHV 181253Z AUTO 00000KT 6SM HZ BKN055 BKN080 14/12 A3001 RMK AO2 SLP166 T01440117
KTHV 181153Z AUTO 00000KT 6SM BR BKN055 OVC075 12/11 A3001 RMK AO2 SLP165 T01220111 10122 20072 53009
KTHV 181053Z AUTO 00000KT 7SM BKN050 11/10 A3000 RMK AO2 SLP162 T01110100
KTHV 180953Z AUTO 00000KT 8SM BKN060 OVC080 11/10 A2999 RMK AO2 SLP157 T01060100
KTHV 180853Z AUTO 00000KT 9SM BKN060 OVC080 11/10 A2998 RMK AO2 SLP155 T01110100 53003
KTHV 180753Z AUTO 00000KT 9SM OVC065 10/09 A2998 RMK AO2 SLP152 T01000089
KTHV 180653Z AUTO 00000KT 9SM OVC070 08/07 A2997 RMK AO2 SLP152 T00830072
KTHV 180553Z AUTO 00000KT 6SM BR CLR 08/07 A2997 RMK AO2 SLP151 T00780067 10128 20072 58006
KTHV 180453Z AUTO 00000KT 6SM BR CLR 08/07 A2998 RMK AO2 SLP152 T00780067 402390050
KTHV 180353Z AUTO 00000KT 10SM CLR 08/08 A2999 RMK AO2 SLP158 T00830078
KTHV 180253Z AUTO 00000KT 10SM CLR 09/07 A2999 RMK AO2 SLP158 T00890072 53005
KTHV 180153Z AUTO 00000KT 10SM CLR 09/08 A2998 RMK AO2 SLP154 T00940078
KTHV 180053Z AUTO 00000KT 10SM CLR 11/09 A2998 RMK AO2 SLP153 T01060089
KTHV 172353Z AUTO 00000KT 10SM CLR 13/10 A2998 RMK AO2 SLP154 T01280100 10239 20128 51002